createdAt,value
2022-09-09T00:00:42.566Z,17.20
2022-09-09T00:03:16.315Z,17.20
2022-09-09T00:05:52.124Z,17.20
2022-09-09T00:08:23.765Z,17.20
2022-09-09T00:11:00.159Z,17.20
2022-09-09T00:13:36.467Z,17.20
2022-09-09T00:16:13.455Z,17.20
2022-09-09T00:18:51.390Z,17.10
2022-09-09T00:21:20.428Z,17.10
2022-09-09T00:23:52.831Z,17.20
2022-09-09T00:26:31.132Z,17.20
2022-09-09T00:29:05.085Z,17.10
2022-09-09T00:31:34.261Z,17.10
2022-09-09T00:34:07.521Z,17.10
2022-09-09T00:36:36.480Z,17.10
2022-09-09T00:39:05.625Z,17.10
2022-09-09T00:41:52.117Z,17.10
2022-09-09T00:44:30.902Z,17.10
2022-09-09T00:47:14.313Z,17.10
2022-09-09T00:49:59.257Z,17.10
2022-09-09T00:52:39.474Z,17.10
2022-09-09T00:55:17.342Z,17.10
2022-09-09T00:57:48.037Z,17.10
2022-09-09T01:00:22.443Z,17.10
2022-09-09T01:03:03.316Z,17.10
2022-09-09T01:05:38.383Z,17.10
2022-09-09T01:08:17.717Z,17.10
2022-09-09T01:10:51.870Z,17.10
2022-09-09T01:13:25.735Z,17.10
2022-09-09T01:15:59.659Z,17.00
2022-09-09T01:18:35.438Z,17.00
2022-09-09T01:21:09.692Z,17.00
2022-09-09T01:23:59.985Z,17.00
2022-09-09T01:26:32.442Z,17.00
2022-09-09T01:29:00.467Z,17.00
2022-09-09T01:31:32.402Z,17.00
2022-09-09T01:34:00.588Z,16.90
2022-09-09T01:36:35.235Z,16.90
2022-09-09T01:39:03.209Z,16.80
2022-09-09T01:41:32.421Z,16.80
2022-09-09T01:44:00.463Z,16.80
2022-09-09T01:46:30.833Z,16.70
2022-09-09T01:49:00.999Z,16.80
2022-09-09T01:51:29.301Z,16.70
2022-09-09T01:53:57.420Z,16.70
2022-09-09T01:56:40.551Z,16.60
2022-09-09T01:59:19.816Z,16.70
2022-09-09T02:01:59.009Z,16.60
2022-09-09T02:04:38.614Z,16.50
2022-09-09T02:07:21.618Z,16.50
2022-09-09T02:09:57.235Z,16.50
2022-09-09T02:12:27.981Z,16.40
2022-09-09T02:15:01.153Z,16.40
2022-09-09T02:17:35.046Z,16.30
2022-09-09T02:20:08.131Z,16.30
2022-09-09T02:22:37.925Z,16.30
2022-09-09T02:25:09.103Z,16.30
2022-09-09T02:27:38.353Z,16.20
2022-09-09T02:30:07.423Z,16.20
2022-09-09T02:32:38.040Z,16.10
2022-09-09T02:35:09.783Z,16.10
2022-09-09T02:37:40.766Z,16.10
2022-09-09T02:40:11.387Z,16.10
2022-09-09T02:42:42.904Z,16.20
2022-09-09T02:45:12.374Z,16.20
2022-09-09T02:47:45.887Z,16.20
2022-09-09T02:50:17.691Z,16.20
2022-09-09T02:52:55.177Z,16.20
2022-09-09T02:55:34.804Z,16.20
2022-09-09T02:58:19.559Z,16.20
2022-09-09T03:00:55.679Z,16.10
2022-09-09T03:03:26.945Z,16.20
2022-09-09T03:05:59.653Z,16.10
2022-09-09T03:08:33.078Z,16.10
2022-09-09T03:11:16.778Z,16.10
2022-09-09T03:13:58.962Z,16.10
2022-09-09T03:16:36.296Z,16.10
2022-09-09T03:19:06.962Z,16.00
2022-09-09T03:21:51.104Z,16.00
2022-09-09T03:24:37.999Z,16.00
2022-09-09T03:27:09.206Z,16.00
2022-09-09T03:29:42.021Z,16.00
2022-09-09T03:32:14.280Z,15.90
2022-09-09T03:34:44.417Z,15.90
2022-09-09T03:37:19.864Z,15.90
2022-09-09T03:40:00.084Z,15.80
2022-09-09T03:42:33.895Z,15.80
2022-09-09T03:45:03.694Z,15.90
2022-09-09T03:48:15.934Z,15.90
2022-09-09T03:50:52.692Z,15.90
2022-09-09T03:53:26.654Z,15.90
2022-09-09T03:56:02.664Z,15.90
2022-09-09T03:58:41.034Z,15.80
2022-09-09T04:01:25.971Z,15.80
2022-09-09T04:04:17.010Z,15.70
2022-09-09T04:07:01.447Z,15.70
2022-09-09T04:09:37.954Z,15.70
2022-09-09T04:12:15.700Z,15.60
2022-09-09T04:14:54.951Z,15.60
2022-09-09T04:17:36.084Z,15.60
2022-09-09T04:20:17.332Z,15.60
2022-09-09T04:22:48.234Z,15.60
2022-09-09T04:28:40.814Z,15.50
2022-09-09T04:34:20.397Z,15.50
2022-09-09T04:37:12.153Z,15.50
2022-09-09T04:40:22.810Z,15.50
2022-09-09T04:43:18.110Z,15.40
2022-09-09T04:46:06.745Z,15.40
2022-09-09T04:49:15.380Z,15.40
2022-09-09T04:54:45.635Z,15.30
2022-09-09T04:58:18.645Z,15.30
2022-09-09T05:01:28.171Z,15.20
2022-09-09T05:04:48.983Z,15.20
2022-09-09T05:07:20.700Z,15.20
2022-09-09T05:13:51.289Z,15.10
2022-09-09T05:23:43.703Z,15.10
2022-09-09T05:26:45.409Z,15.10
2022-09-09T05:29:50.461Z,15.10
2022-09-09T05:32:49.090Z,15.20
2022-09-09T05:42:52.727Z,15.30
2022-09-09T05:46:11.230Z,15.30
2022-09-09T05:53:21.814Z,15.30
2022-09-09T05:56:30.688Z,15.30
2022-09-09T05:59:52.425Z,15.30
2022-09-09T06:06:08.663Z,15.40
2022-09-09T06:09:06.847Z,15.40
2022-09-09T06:14:28.316Z,15.50
2022-09-09T06:17:23.904Z,15.60
2022-09-09T06:20:29.573Z,15.60
2022-09-09T06:26:35.262Z,15.80
2022-09-09T06:32:47.957Z,15.90
2022-09-09T06:39:20.828Z,16.00
2022-09-09T06:45:49.291Z,16.10
2022-09-09T07:04:45.546Z,16.60
2022-09-09T07:14:27.689Z,16.90
2022-09-09T07:17:44.165Z,16.90
2022-09-09T07:21:01.549Z,16.90
2022-09-09T08:14:30.492Z,17.40
2022-09-09T08:20:02.722Z,17.40
2022-09-09T08:23:22.310Z,17.40
2022-09-09T08:26:12.608Z,17.40
2022-09-09T08:29:11.545Z,17.40
2022-09-09T08:32:29.511Z,17.40
2022-09-09T08:35:16.625Z,17.40
2022-09-09T08:37:51.414Z,17.40
2022-09-09T08:40:50.488Z,17.40
2022-09-09T08:46:41.414Z,17.40
2022-09-09T08:53:08.955Z,17.40
2022-09-09T08:56:04.738Z,17.40
2022-09-09T09:02:39.370Z,17.30
2022-09-09T09:09:01.818Z,17.30
2022-09-09T09:15:04.610Z,17.30
2022-09-09T09:18:07.365Z,17.30
2022-09-09T09:43:11.743Z,17.50
2022-09-09T09:46:35.471Z,17.50
2022-09-09T09:49:28.477Z,17.50
2022-09-09T09:52:18.400Z,17.50
2022-09-09T09:58:34.702Z,17.50
2022-09-09T10:04:59.317Z,17.50
2022-09-09T10:10:27.667Z,17.40
2022-09-09T10:13:26.195Z,17.50
2022-09-09T10:16:13.001Z,17.40
2022-09-09T10:19:41.047Z,17.40
2022-09-09T10:22:28.455Z,17.40
2022-09-09T10:25:26.014Z,17.40
2022-09-09T10:28:19.361Z,17.50
2022-09-09T10:30:58.980Z,17.50
2022-09-09T10:34:29.689Z,17.50
2022-09-09T10:37:03.814Z,17.40
2022-09-09T10:39:42.231Z,17.30
2022-09-09T10:42:15.690Z,17.30
2022-09-09T10:45:00.508Z,17.40
2022-09-09T10:48:15.183Z,17.40
2022-09-09T10:51:19.359Z,17.50
2022-09-09T10:54:11.217Z,17.60
2022-09-09T10:56:43.531Z,17.70
2022-09-09T10:59:16.331Z,17.80
2022-09-09T11:01:52.015Z,18.00
2022-09-09T11:04:31.134Z,18.00
2022-09-09T11:07:11.667Z,18.10
2022-09-09T11:09:46.026Z,18.10
2022-09-09T11:12:22.572Z,18.00
2022-09-09T11:14:56.706Z,18.00
2022-09-09T11:17:35.615Z,18.10
2022-09-09T11:20:12.988Z,18.10
2022-09-09T11:22:50.532Z,18.10
2022-09-09T11:25:21.828Z,18.20
2022-09-09T11:28:02.320Z,18.30
2022-09-09T11:30:56.194Z,18.30
2022-09-09T11:33:49.311Z,18.30
2022-09-09T11:36:47.247Z,18.30
2022-09-09T11:39:49.939Z,18.40
2022-09-09T11:42:22.164Z,18.40
2022-09-09T11:44:52.450Z,18.40
2022-09-09T11:47:30.874Z,18.40
2022-09-09T11:50:14.664Z,18.40
2022-09-09T11:52:47.293Z,18.40
2022-09-09T11:55:30.597Z,18.40
2022-09-09T11:58:01.276Z,18.50
2022-09-09T12:00:39.487Z,18.50
2022-09-09T12:03:10.045Z,18.50
2022-09-09T12:08:30.391Z,18.50
2022-09-09T12:11:02.465Z,18.40
2022-09-09T12:13:32.425Z,18.40
2022-09-09T12:16:06.339Z,18.40
2022-09-09T12:18:37.660Z,18.40
2022-09-09T12:21:14.093Z,18.30
2022-09-09T12:23:54.439Z,18.40
2022-09-09T12:26:35.137Z,18.40
2022-09-09T12:29:21.043Z,18.40
2022-09-09T12:31:57.996Z,18.50
2022-09-09T12:34:42.062Z,18.50
2022-09-09T12:37:20.211Z,18.50
2022-09-09T12:39:54.011Z,18.40
2022-09-09T12:42:27.075Z,18.40
2022-09-09T12:45:00.469Z,18.50
2022-09-09T12:47:37.226Z,18.50
2022-09-09T12:50:06.001Z,18.50
2022-09-09T12:52:40.565Z,18.60
2022-09-09T12:55:10.089Z,18.50
2022-09-09T12:57:41.885Z,18.60
2022-09-09T13:00:16.920Z,18.70
2022-09-09T13:02:51.290Z,18.80
2022-09-09T13:05:22.457Z,18.80
2022-09-09T13:07:51.643Z,18.90
2022-09-09T13:10:36.680Z,19.00
2022-09-09T13:13:17.342Z,19.00
2022-09-09T13:15:52.682Z,19.00
2022-09-09T13:18:26.568Z,18.90
2022-09-09T13:20:54.999Z,18.80
2022-09-09T13:23:26.423Z,18.70
2022-09-09T13:25:59.616Z,18.70
2022-09-09T13:28:33.790Z,18.70
2022-09-09T13:31:04.373Z,18.60
2022-09-09T13:33:36.721Z,18.70
2022-09-09T13:36:07.057Z,18.60
2022-09-09T13:38:39.171Z,18.70
2022-09-09T13:41:12.569Z,18.60
2022-09-09T13:43:49.153Z,18.60
2022-09-09T13:46:35.671Z,18.60
2022-09-09T13:49:19.578Z,18.50
2022-09-09T13:51:51.537Z,18.50
2022-09-09T13:54:21.177Z,18.40
2022-09-09T13:56:50.615Z,18.40
2022-09-09T13:59:22.374Z,18.40
2022-09-09T14:01:53.462Z,18.40
2022-09-09T14:04:22.671Z,18.40
2022-09-09T14:06:51.361Z,18.40
2022-09-09T14:09:20.140Z,18.40
2022-09-09T14:11:48.214Z,18.50
2022-09-09T14:14:16.249Z,18.50
2022-09-09T14:16:49.452Z,18.50
2022-09-09T14:19:19.325Z,18.50
2022-09-09T14:21:50.713Z,18.50
2022-09-09T14:24:19.646Z,18.50
2022-09-09T14:26:49.441Z,18.50
2022-09-09T14:29:21.560Z,18.50
2022-09-09T14:31:50.975Z,18.50
2022-09-09T14:34:19.402Z,18.50
2022-09-09T14:36:48.914Z,18.40
2022-09-09T14:39:17.434Z,18.40
2022-09-09T14:41:49.380Z,18.30
2022-09-09T14:44:18.218Z,18.40
2022-09-09T14:46:46.065Z,18.40
2022-09-09T14:49:15.363Z,18.40
2022-09-09T14:51:48.714Z,18.50
2022-09-09T14:54:17.436Z,18.50
2022-09-09T14:56:46.187Z,18.50
2022-09-09T14:59:15.276Z,18.50
2022-09-09T15:01:51.170Z,18.40
2022-09-09T15:04:21.404Z,18.50
2022-09-09T15:06:57.466Z,18.40
2022-09-09T15:09:32.559Z,18.40
2022-09-09T15:12:12.672Z,18.40
2022-09-09T15:15:00.197Z,18.50
2022-09-09T15:17:37.981Z,18.50
2022-09-09T15:20:21.213Z,18.60
2022-09-09T15:23:05.285Z,18.60
2022-09-09T15:25:43.038Z,18.60
2022-09-09T15:28:35.723Z,18.70
2022-09-09T15:31:16.498Z,18.60
2022-09-09T15:34:18.488Z,18.60
2022-09-09T15:36:57.138Z,18.50
2022-09-09T15:39:38.765Z,18.60
2022-09-09T15:42:14.460Z,18.50
2022-09-09T15:44:57.489Z,18.60
2022-09-09T15:47:42.368Z,18.60
2022-09-09T15:50:17.062Z,18.60
2022-09-09T15:55:55.710Z,18.50
2022-09-09T15:58:42.706Z,18.50
2022-09-09T16:01:27.635Z,18.50
2022-09-09T16:03:58.101Z,18.50
2022-09-09T16:06:39.585Z,18.50
2022-09-09T16:09:16.230Z,18.40
2022-09-09T16:11:55.886Z,18.40
2022-09-09T16:14:29.077Z,18.40
2022-09-09T16:17:02.359Z,18.40
2022-09-09T16:19:33.412Z,18.40
2022-09-09T16:22:04.022Z,18.40
2022-09-09T16:24:33.293Z,18.40
2022-09-09T16:27:02.882Z,18.40
2022-09-09T16:29:37.861Z,18.40
2022-09-09T16:32:09.947Z,18.40
2022-09-09T16:34:41.896Z,18.50
2022-09-09T16:37:13.604Z,18.50
2022-09-09T16:39:44.924Z,18.50
2022-09-09T16:42:13.348Z,18.50
2022-09-09T16:44:58.441Z,18.50
2022-09-09T16:47:38.912Z,18.50
2022-09-09T16:50:12.944Z,18.50
2022-09-09T16:52:52.408Z,18.40
2022-09-09T16:55:38.442Z,18.40
2022-09-09T16:58:10.997Z,18.40
2022-09-09T17:00:39.893Z,18.30
2022-09-09T17:03:19.608Z,18.30
2022-09-09T17:06:02.967Z,18.30
2022-09-09T17:08:34.805Z,18.30
2022-09-09T17:11:16.482Z,18.30
2022-09-09T17:16:37.232Z,18.20
2022-09-09T17:19:05.825Z,18.10
2022-09-09T17:21:35.111Z,18.00
2022-09-09T17:24:03.684Z,18.00
2022-09-09T17:26:38.186Z,17.90
2022-09-09T17:29:07.387Z,17.90
2022-09-09T17:31:35.476Z,17.90
2022-09-09T17:34:04.675Z,17.80
2022-09-09T17:36:37.520Z,17.80
2022-09-09T17:39:06.794Z,17.80
2022-09-09T17:41:37.648Z,17.80
2022-09-09T17:44:12.430Z,17.70
2022-09-09T17:46:42.252Z,17.70
2022-09-09T17:49:12.837Z,17.70
2022-09-09T17:51:42.522Z,17.70
2022-09-09T17:54:13.192Z,17.70
2022-09-09T17:56:46.925Z,17.70
2022-09-09T17:59:19.194Z,17.70
2022-09-09T18:01:49.479Z,17.70
2022-09-09T18:04:18.577Z,17.70
2022-09-09T18:06:49.989Z,17.70
2022-09-09T18:09:20.419Z,17.70
2022-09-09T18:11:52.096Z,17.70
2022-09-09T18:14:22.640Z,17.70
2022-09-09T18:16:51.849Z,17.70
2022-09-09T18:19:21.666Z,17.70
2022-09-09T18:21:50.568Z,17.70
2022-09-09T18:24:23.364Z,17.60
2022-09-09T18:26:53.446Z,17.60
2022-09-09T18:29:27.025Z,17.60
2022-09-09T18:31:56.588Z,17.50
2022-09-09T18:34:28.661Z,17.50
2022-09-09T18:36:58.382Z,17.40
2022-09-09T18:39:28.325Z,17.40
2022-09-09T18:42:02.519Z,17.40
2022-09-09T18:44:32.515Z,17.40
2022-09-09T18:47:00.784Z,17.40
2022-09-09T18:49:29.007Z,17.40
2022-09-09T18:51:57.954Z,17.40
2022-09-09T18:54:29.606Z,17.40
2022-09-09T18:57:01.201Z,17.40
2022-09-09T18:59:29.355Z,17.40
2022-09-09T19:01:57.799Z,17.40
2022-09-09T19:04:27.186Z,17.40
2022-09-09T19:06:58.225Z,17.50
2022-09-09T19:09:29.571Z,17.40
2022-09-09T19:12:01.232Z,17.40
2022-09-09T19:14:31.557Z,17.40
2022-09-09T19:17:00.407Z,17.40
2022-09-09T19:19:32.135Z,17.40
2022-09-09T19:22:00.461Z,17.40
2022-09-09T19:24:31.758Z,17.40
2022-09-09T19:27:05.727Z,17.40
2022-09-09T19:29:39.053Z,17.40
2022-09-09T19:34:57.125Z,17.40
2022-09-09T19:37:26.131Z,17.40
2022-09-09T19:39:54.246Z,17.40
2022-09-09T19:42:23.840Z,17.40
2022-09-09T19:44:54.908Z,17.40
2022-09-09T19:47:24.073Z,17.40
2022-09-09T19:49:52.548Z,17.40
2022-09-09T19:52:22.051Z,17.40
2022-09-09T19:54:50.112Z,17.40
2022-09-09T19:57:19.600Z,17.40
2022-09-09T19:59:48.924Z,17.40
2022-09-09T20:02:18.600Z,17.30
2022-09-09T20:04:46.713Z,17.30
2022-09-09T20:07:14.961Z,17.30
2022-09-09T20:09:45.286Z,17.30
2022-09-09T20:12:13.571Z,17.30
2022-09-09T20:14:42.692Z,17.30
2022-09-09T20:17:15.246Z,17.30
2022-09-09T20:19:43.345Z,17.20
2022-09-09T20:22:11.595Z,17.20
2022-09-09T20:24:44.026Z,17.20
2022-09-09T20:27:13.193Z,17.20
2022-09-09T20:29:41.127Z,17.20
2022-09-09T20:32:10.751Z,17.10
2022-09-09T20:34:44.138Z,17.10
2022-09-09T20:37:14.694Z,17.10
2022-09-09T20:39:42.583Z,17.10
2022-09-09T20:42:11.240Z,17.00
2022-09-09T20:44:39.646Z,17.00
2022-09-09T20:47:09.152Z,17.00
2022-09-09T20:49:37.281Z,17.00
2022-09-09T20:52:08.748Z,17.00
2022-09-09T20:54:38.432Z,16.90
2022-09-09T20:57:08.476Z,16.90
2022-09-09T20:59:37.179Z,16.90
2022-09-09T21:02:05.590Z,16.90
2022-09-09T21:04:33.534Z,16.90
2022-09-09T21:07:02.472Z,16.90
2022-09-09T21:09:36.697Z,16.90
2022-09-09T21:12:05.243Z,16.90
2022-09-09T21:14:33.545Z,16.90
2022-09-09T21:17:06.558Z,16.90
2022-09-09T21:19:37.594Z,16.90
2022-09-09T21:22:06.699Z,16.80
2022-09-09T21:24:38.281Z,16.80
2022-09-09T21:27:09.377Z,16.80
2022-09-09T21:29:43.103Z,16.80
2022-09-09T21:32:14.898Z,16.80
2022-09-09T21:34:42.823Z,16.80
2022-09-09T21:37:12.769Z,16.70
2022-09-09T21:39:43.125Z,16.70
2022-09-09T21:42:15.050Z,16.70
2022-09-09T21:44:45.484Z,16.70
2022-09-09T21:47:16.025Z,16.70
2022-09-09T21:49:44.122Z,16.70
2022-09-09T21:52:12.335Z,16.70
2022-09-09T21:54:43.127Z,16.70
2022-09-09T21:57:14.197Z,16.70
2022-09-09T21:59:42.512Z,16.70
2022-09-09T22:02:11.037Z,16.70
2022-09-09T22:04:40.477Z,16.70
2022-09-09T22:07:08.740Z,16.60
2022-09-09T22:09:37.154Z,16.70
2022-09-09T22:12:09.278Z,16.60
2022-09-09T22:14:37.253Z,16.60
2022-09-09T22:17:06.342Z,16.60
2022-09-09T22:19:34.971Z,16.60
2022-09-09T22:22:02.804Z,16.60
2022-09-09T22:24:30.887Z,16.60
2022-09-09T22:26:58.737Z,16.60
2022-09-09T22:29:28.212Z,16.50
2022-09-09T22:31:56.195Z,16.50
2022-09-09T22:34:24.266Z,16.50
2022-09-09T22:36:52.081Z,16.50
2022-09-09T22:39:20.217Z,16.50
2022-09-09T22:41:49.894Z,16.50
2022-09-09T22:44:18.297Z,16.50
2022-09-09T22:46:50.431Z,16.50
2022-09-09T22:49:19.043Z,16.50
2022-09-09T22:51:46.982Z,16.50
2022-09-09T22:54:15.371Z,16.50
2022-09-09T22:56:45.790Z,16.50
2022-09-09T22:59:13.602Z,16.50
2022-09-09T23:01:41.619Z,16.50
2022-09-09T23:04:28.788Z,16.50
2022-09-09T23:07:00.141Z,16.50
2022-09-09T23:09:28.104Z,16.40
2022-09-09T23:11:58.618Z,16.40
2022-09-09T23:14:27.270Z,16.40
2022-09-09T23:16:56.800Z,16.40
2022-09-09T23:19:28.728Z,16.40
2022-09-09T23:21:57.292Z,16.40
2022-09-09T23:24:26.142Z,16.40
2022-09-09T23:26:53.953Z,16.40
2022-09-09T23:29:21.808Z,16.40
2022-09-09T23:31:49.694Z,16.40
2022-09-09T23:34:27.156Z,16.40
2022-09-09T23:36:56.665Z,16.40
2022-09-09T23:39:24.831Z,16.40
2022-09-09T23:41:52.709Z,16.40
2022-09-09T23:44:20.615Z,16.50
2022-09-09T23:46:48.472Z,16.50
2022-09-09T23:49:17.506Z,16.50
2022-09-09T23:51:45.389Z,16.40
2022-09-09T23:54:14.543Z,16.40
2022-09-09T23:56:43.524Z,16.50
2022-09-09T23:59:19.230Z,16.40
